Time;durP1;ratioP1;P1;durP2;ratioP2;P2;SDS_P1;SDS_P2;PMS_P1;PMS_P2;Temp;Humidity;BMP_temperature;BMP_pressure;BME280_temperature;BME280_humidity;BME280_pressure;Samples;Min_cycle;Max_cycle;Signal;HPM_P1;HPM_P2
2023/07/15 00:01:24;;;;;;;14.63;3.90;;;;;;;21.79;59.68;100250.00;5014312;28;20045;-67
2023/07/15 00:03:51;;;;;;;13.20;3.83;;;;;;;21.79;59.41;100244.63;5014363;28;20064;-63
2023/07/15 00:06:17;;;;;;;16.38;3.97;;;;;;;21.77;59.23;100242.03;5014000;28;20033;-67
2023/07/15 00:08:44;;;;;;;13.52;4.03;;;;;;;21.79;58.66;100250.00;5013859;28;20601;-63
2023/07/15 00:11:20;;;;;;;14.63;4.13;;;;;;;21.75;58.83;100245.72;5014099;28;20052;-63
2023/07/15 00:13:45;;;;;;;13.00;3.92;;;;;;;21.72;58.74;100237.81;5013856;28;20029;-67
2023/07/15 00:16:10;;;;;;;14.07;3.83;;;;;;;21.68;59.02;100241.63;5013852;28;20385;-62
2023/07/15 00:18:36;;;;;;;13.38;3.90;;;;;;;21.62;59.12;100242.81;5013932;28;20069;-67
2023/07/15 00:21:25;;;;;;;12.23;3.78;;;;;;;21.54;59.96;100245.88;5013665;28;20030;-67
2023/07/15 00:23:55;;;;;;;13.57;3.65;;;;;;;21.47;60.08;100247.13;5009198;28;20050;-68
2023/07/15 00:26:25;;;;;;;12.75;3.70;;;;;;;21.41;60.39;100245.59;5009804;28;20026;-64
2023/07/15 00:28:50;;;;;;;10.05;3.60;;;;;;;21.41;60.35;100242.91;5010029;28;20037;-62
2023/07/15 00:31:18;;;;;;;14.90;3.90;;;;;;;21.42;59.96;100241.09;5013244;28;20041;-70
2023/07/15 00:33:44;;;;;;;12.68;3.90;;;;;;;21.41;60.49;100239.38;5013747;28;20030;-67
2023/07/15 00:36:12;;;;;;;12.98;3.95;;;;;;;21.46;60.03;100241.81;5013509;28;20034;-68
2023/07/15 00:38:38;;;;;;;12.32;3.88;;;;;;;21.54;59.36;100239.66;5013890;28;20025;-69
2023/07/15 00:41:10;;;;;;;10.88;3.70;;;;;;;21.56;59.07;100243.13;5013379;28;20496;-71
2023/07/15 00:43:58;;;;;;;10.02;3.70;;;;;;;21.55;59.81;100246.75;5013299;28;20092;-71
2023/07/15 00:46:32;;;;;;;14.68;3.90;;;;;;;21.52;60.15;100241.53;5009836;28;20481;-62
2023/07/15 00:49:00;;;;;;;15.20;3.75;;;;;;;21.50;60.17;100244.25;5010537;28;20073;-66
2023/07/15 00:51:28;;;;;;;14.57;4.03;;;;;;;21.47;60.38;100251.63;5013247;28;20159;-70
2023/07/15 00:53:54;;;;;;;11.23;3.80;;;;;;;21.38;60.39;100255.66;5013248;28;20392;-69
2023/07/15 00:56:21;;;;;;;12.45;3.88;;;;;;;21.29;60.73;100253.41;5005215;28;20112;-70
2023/07/15 00:58:48;;;;;;;16.25;3.88;;;;;;;21.21;60.88;100251.97;5001954;28;20036;-70
2023/07/15 01:01:14;;;;;;;12.63;3.80;;;;;;;21.14;61.19;100253.22;5004244;28;20034;-70
2023/07/15 01:03:40;;;;;;;13.25;3.80;;;;;;;21.02;61.30;100251.13;5002954;28;20127;-66
2023/07/15 01:06:06;;;;;;;12.85;3.92;;;;;;;20.94;61.80;100256.00;5003244;28;20034;-67
2023/07/15 01:08:31;;;;;;;12.98;3.78;;;;;;;20.88;61.67;100251.78;5003893;28;20082;-70
2023/07/15 01:10:57;;;;;;;13.35;3.83;;;;;;;20.82;62.53;100254.78;5002002;28;20166;-69
2023/07/15 01:13:22;;;;;;;12.98;3.92;;;;;;;20.71;63.31;100264.22;5004817;28;20087;-69
2023/07/15 01:15:48;;;;;;;14.40;3.90;;;;;;;20.69;62.60;100259.84;5001910;28;20065;-70
2023/07/15 01:18:13;;;;;;;11.55;3.60;;;;;;;20.62;63.02;100258.34;5004154;28;20063;-71
2023/07/15 01:20:38;;;;;;;13.85;3.92;;;;;;;20.55;63.61;100261.34;5002786;28;20041;-71
2023/07/15 01:23:04;;;;;;;13.90;3.90;;;;;;;20.53;64.36;100257.88;4985114;28;20041;-71
2023/07/15 01:25:29;;;;;;;13.55;3.97;;;;;;;20.48;64.47;100259.88;5004274;28;20038;-70
2023/07/15 01:27:55;;;;;;;13.00;3.70;;;;;;;20.50;63.74;100252.66;5001286;28;20030;-69
2023/07/15 01:30:20;;;;;;;12.30;3.78;;;;;;;20.43;64.70;100267.28;5004645;28;20034;-71
2023/07/15 01:32:45;;;;;;;11.80;3.60;;;;;;;20.38;64.97;100258.56;5001882;28;20080;-71
2023/07/15 01:35:11;;;;;;;13.43;3.70;;;;;;;20.30;65.29;100256.25;5003329;28;20042;-68
2023/07/15 01:37:36;;;;;;;13.63;3.78;;;;;;;20.24;65.34;100261.00;4988995;28;20050;-71
2023/07/15 01:40:03;;;;;;;12.15;3.75;;;;;;;20.15;66.85;100260.50;4982568;28;20471;-68
2023/07/15 01:42:28;;;;;;;11.50;3.70;;;;;;;20.13;66.15;100259.66;4984837;28;20125;-70
2023/07/15 01:44:54;;;;;;;14.27;3.70;;;;;;;20.06;66.51;100266.25;4985823;28;20118;-71
2023/07/15 01:47:20;;;;;;;14.57;3.90;;;;;;;20.05;67.16;100260.94;4988838;28;20386;-70
2023/07/15 01:49:45;;;;;;;14.63;3.63;;;;;;;20.02;67.36;100265.53;4986096;28;20031;-70
2023/07/15 01:52:10;;;;;;;9.55;3.50;;;;;;;20.00;66.97;100266.53;4988011;28;20090;-69
2023/07/15 01:54:36;;;;;;;12.50;3.85;;;;;;;19.96;67.55;100267.59;4987357;28;20026;-71
2023/07/15 01:57:01;;;;;;;14.20;3.75;;;;;;;19.96;69.24;100268.44;4986239;28;20084;-70
2023/07/15 01:59:26;;;;;;;11.68;3.80;;;;;;;19.96;68.17;100281.00;4988659;28;20033;-71
2023/07/15 02:01:56;;;;;;;13.32;3.50;;;;;;;19.96;67.80;100281.00;4985414;28;20100;-70
2023/07/15 02:04:21;;;;;;;12.80;3.53;;;;;;;19.92;67.87;100277.59;4988662;28;20084;-68
2023/07/15 02:06:47;;;;;;;11.52;3.70;;;;;;;19.91;68.62;100277.66;4985937;28;20462;-67
2023/07/15 02:09:12;;;;;;;10.80;3.50;;;;;;;19.86;68.38;100280.53;4987491;28;20038;-67
2023/07/15 02:11:38;;;;;;;13.10;3.78;;;;;;;19.83;68.85;100278.88;4986809;28;20029;-65
2023/07/15 02:14:03;;;;;;;10.00;3.53;;;;;;;19.82;70.27;100271.75;4986451;28;20042;-62
2023/07/15 02:16:28;;;;;;;13.68;3.63;;;;;;;19.77;70.95;100278.22;4987999;28;20478;-67
2023/07/15 02:18:54;;;;;;;13.10;3.83;;;;;;;19.76;69.82;100282.72;4985097;28;20047;-62
2023/07/15 02:21:19;;;;;;;13.38;3.60;;;;;;;19.70;70.58;100288.31;4988394;28;20169;-66
2023/07/15 02:23:45;;;;;;;11.65;3.67;;;;;;;19.59;72.50;100291.47;4985640;28;20571;-66
2023/07/15 02:26:11;;;;;;;14.20;3.50;;;;;;;19.46;72.86;100277.69;4987189;28;20038;-67
2023/07/15 02:28:36;;;;;;;13.43;3.95;;;;;;;19.40;73.12;100291.34;4986991;28;20437;-67
2023/07/15 02:31:01;;;;;;;11.90;3.60;;;;;;;19.32;75.34;100289.00;4985622;28;20038;-63
2023/07/15 02:33:27;;;;;;;13.77;3.90;;;;;;;19.28;75.32;100295.41;4988178;28;20026;-66
2023/07/15 02:35:52;;;;;;;14.30;3.80;;;;;;;19.23;74.75;100285.81;4984802;28;20073;-65
2023/07/15 02:38:18;;;;;;;13.80;3.80;;;;;;;19.17;75.72;100292.28;4987686;28;20478;-63
2023/07/15 02:40:43;;;;;;;14.57;3.90;;;;;;;19.13;75.92;100290.66;4985747;28;20030;-66
2023/07/15 02:43:09;;;;;;;12.20;3.70;;;;;;;19.08;77.00;100288.16;4986239;28;20034;-67
2023/07/15 02:45:35;;;;;;;14.45;3.90;;;;;;;19.07;77.47;100285.56;4986714;28;20441;-67
2023/07/15 02:48:00;;;;;;;12.90;3.67;;;;;;;18.95;82.48;100281.56;4985594;28;20043;-67
2023/07/15 02:50:26;;;;;;;13.40;3.85;;;;;;;18.89;80.54;100279.13;4987740;28;20466;-66
2023/07/15 02:52:52;;;;;;;12.48;3.80;;;;;;;18.80;86.78;100265.13;4992002;28;20030;-65
2023/07/15 02:55:17;;;;;;;13.18;3.92;;;;;;;18.76;89.96;100273.34;4978163;28;20041;-64
2023/07/15 02:57:42;;;;;;;14.48;3.90;;;;;;;18.69;94.60;100267.34;4995779;28;20117;-67
2023/07/15 03:00:12;;;;;;;12.60;3.55;;;;;;;18.64;96.98;100275.53;4995686;28;20452;-63
2023/07/15 03:02:38;;;;;;;11.52;3.80;;;;;;;18.58;96.96;100273.13;4995640;28;20069;-67
2023/07/15 03:05:05;;;;;;;12.48;3.80;;;;;;;18.45;100.00;100278.03;4995657;28;20069;-67
2023/07/15 03:07:31;;;;;;;12.48;4.03;;;;;;;18.33;100.00;100281.16;4995633;28;20027;-67
2023/07/15 03:09:56;;;;;;;10.82;3.80;;;;;;;18.20;100.00;100275.41;4995678;28;20084;-64
2023/07/15 03:12:22;;;;;;;13.20;3.95;;;;;;;18.20;100.00;100270.06;4978120;28;20061;-66
2023/07/15 03:14:47;;;;;;;14.25;3.90;;;;;;;18.14;100.00;100274.75;4995442;28;20022;-61
2023/07/15 03:17:15;;;;;;;11.95;3.85;;;;;;;18.04;100.00;100277.75;4995519;28;20125;-71
2023/07/15 03:19:40;;;;;;;11.85;3.85;;;;;;;17.93;100.00;100277.25;4995314;28;20026;-71
2023/07/15 03:22:05;;;;;;;16.52;4.20;;;;;;;17.88;100.00;100281.84;4995337;28;20022;-70
2023/07/15 03:24:31;;;;;;;15.82;4.40;;;;;;;17.77;100.00;100283.09;4995219;28;20026;-71
2023/07/15 03:26:56;;;;;;;13.73;4.00;;;;;;;17.67;100.00;100287.00;4995162;28;20065;-70
2023/07/15 03:29:24;;;;;;;14.32;4.10;;;;;;;17.73;100.00;100284.13;4995481;28;20030;-71
2023/07/15 03:31:49;;;;;;;12.55;4.07;;;;;;;17.59;100.00;100278.38;4995299;28;20393;-69
2023/07/15 03:34:15;;;;;;;15.45;4.15;;;;;;;17.48;100.00;100284.09;4995059;28;20031;-62
2023/07/15 03:36:40;;;;;;;11.95;4.00;;;;;;;17.45;100.00;100286.84;5001553;28;20456;-61
2023/07/15 03:39:05;;;;;;;14.40;4.28;;;;;;;17.47;100.00;100278.78;5014467;28;20022;-70
2023/07/15 03:41:32;;;;;;;12.63;4.07;;;;;;;17.50;100.00;100286.69;5014567;28;20422;-62
2023/07/15 03:43:57;;;;;;;14.00;4.15;;;;;;;17.53;100.00;100283.94;5014640;28;20041;-70
2023/07/15 03:46:26;;;;;;;15.60;4.45;;;;;;;17.41;100.00;100283.41;5014414;28;20499;-71
2023/07/15 03:48:53;;;;;;;13.45;4.10;;;;;;;17.40;100.00;100283.44;5014619;28;20030;-71
2023/07/15 03:51:19;;;;;;;14.70;4.10;;;;;;;17.41;100.00;100279.88;5014485;28;20041;-70
2023/07/15 03:53:44;;;;;;;13.73;4.10;;;;;;;17.25;100.00;100284.84;5014222;28;20425;-71
2023/07/15 03:56:09;;;;;;;15.18;4.10;;;;;;;17.27;100.00;100277.66;5014248;28;20117;-67
2023/07/15 03:58:35;;;;;;;14.15;4.18;;;;;;;17.24;100.00;100277.72;5014336;28;20481;-66
2023/07/15 04:01:00;;;;;;;13.23;4.30;;;;;;;17.22;100.00;100279.59;5014380;28;20040;-67
2023/07/15 04:03:26;;;;;;;12.80;4.32;;;;;;;17.14;100.00;100277.19;5013992;28;20033;-67
2023/07/15 04:05:51;;;;;;;15.85;4.38;;;;;;;17.14;100.00;100265.59;5013559;28;20026;-67
2023/07/15 04:08:16;;;;;;;14.43;4.60;;;;;;;17.17;100.00;100269.06;5013955;28;20116;-63
2023/07/15 04:10:46;;;;;;;15.02;4.65;;;;;;;17.15;100.00;100272.69;5014137;28;20021;-64
2023/07/15 04:13:12;;;;;;;15.75;4.32;;;;;;;17.07;100.00;100271.16;5014041;28;20026;-65
2023/07/15 04:15:37;;;;;;;14.60;4.15;;;;;;;17.18;100.00;100270.81;5013855;28;20448;-66
2023/07/15 04:18:02;;;;;;;14.85;4.50;;;;;;;17.14;100.00;100271.84;5013855;28;20484;-63
2023/07/15 04:20:28;;;;;;;13.57;4.10;;;;;;;17.12;100.00;100278.13;5013905;28;20413;-66
2023/07/15 04:22:53;;;;;;;15.15;4.18;;;;;;;17.19;100.00;100282.38;5013630;28;20172;-66
2023/07/15 04:25:18;;;;;;;15.75;4.35;;;;;;;17.28;100.00;100278.53;5013851;28;20112;-65
2023/07/15 04:27:43;;;;;;;15.18;4.28;;;;;;;17.34;100.00;100275.66;5013553;28;20033;-63
2023/07/15 04:30:10;;;;;;;14.18;4.28;;;;;;;17.43;100.00;100275.38;5013845;28;20030;-63
2023/07/15 04:32:36;;;;;;;13.18;4.30;;;;;;;17.55;100.00;100284.78;5013649;28;20037;-64
2023/07/15 04:35:02;;;;;;;16.77;4.40;;;;;;;17.57;100.00;100291.78;5013503;28;20026;-66
2023/07/15 04:37:28;;;;;;;14.27;4.20;;;;;;;17.61;100.00;100292.56;5013174;28;20054;-68
2023/07/15 04:39:53;;;;;;;13.25;4.22;;;;;;;17.67;100.00;100289.69;5013694;28;20042;-65
2023/07/15 04:42:18;;;;;;;14.82;4.47;;;;;;;17.73;100.00;100292.13;5013337;28;20030;-61
2023/07/15 04:44:44;;;;;;;18.65;4.63;;;;;;;17.66;100.00;100290.59;5013245;28;20388;-65
2023/07/15 04:47:09;;;;;;;16.70;4.65;;;;;;;17.71;100.00;100304.69;5013466;28;20069;-63
2023/07/15 04:49:35;;;;;;;16.15;4.45;;;;;;;17.70;100.00;100307.41;5013174;28;20443;-66
2023/07/15 04:52:00;;;;;;;18.60;4.50;;;;;;;17.72;100.00;100305.56;5013244;28;20034;-67
2023/07/15 04:54:26;;;;;;;13.93;4.13;;;;;;;17.83;100.00;100299.88;5013709;28;20061;-63
2023/07/15 04:56:51;;;;;;;15.85;4.20;;;;;;;17.92;100.00;100295.09;5013132;28;20045;-67
2023/07/15 04:59:17;;;;;;;15.13;4.50;;;;;;;17.97;100.00;100300.28;5013325;28;20393;-71
2023/07/15 05:01:42;;;;;;;15.82;4.32;;;;;;;18.04;100.00;100296.47;5013060;28;20046;-72
2023/07/15 05:04:07;;;;;;;16.15;4.57;;;;;;;18.15;100.00;100303.25;5012970;28;20030;-71
2023/07/15 05:06:33;;;;;;;15.73;4.20;;;;;;;18.24;100.00;100292.22;5013046;28;20092;-71
2023/07/15 05:08:59;;;;;;;14.27;4.07;;;;;;;18.32;100.00;100291.91;5013003;28;20117;-71
2023/07/15 05:11:25;;;;;;;13.07;3.90;;;;;;;18.41;100.00;100294.28;5012886;28;20104;-71
2023/07/15 05:13:50;;;;;;;16.63;4.03;;;;;;;18.49;100.00;100289.50;4979409;28;20031;-72
2023/07/15 05:16:15;;;;;;;13.18;4.05;;;;;;;18.56;100.00;100298.19;5012829;28;20367;-72
2023/07/15 05:18:41;;;;;;;13.77;3.88;;;;;;;18.65;100.00;100300.50;5012861;28;20125;-72
2023/07/15 05:21:07;;;;;;;15.15;4.05;;;;;;;18.75;100.00;100303.72;5012991;28;20029;-72
2023/07/15 05:23:33;;;;;;;13.52;3.85;;;;;;;18.84;100.00;100300.66;5012730;28;20394;-71
2023/07/15 05:25:59;;;;;;;14.77;4.13;;;;;;;18.97;100.00;100306.47;5012784;28;20034;-71
2023/07/15 05:28:30;;;;;;;14.85;3.92;;;;;;;19.08;100.00;100289.97;5013010;28;20117;-71
2023/07/15 05:30:57;;;;;;;13.70;3.90;;;;;;;19.17;100.00;100293.16;5009100;28;20098;-71
2023/07/15 05:33:22;;;;;;;13.88;4.25;;;;;;;19.27;100.00;100304.38;5012711;28;20034;-71
2023/07/15 05:35:48;;;;;;;13.10;3.88;;;;;;;19.35;100.00;100304.06;5012887;28;20496;-71
2023/07/15 05:38:13;;;;;;;14.10;3.95;;;;;;;19.47;100.00;100298.22;5012498;28;20054;-71
2023/07/15 05:40:40;;;;;;;15.23;4.20;;;;;;;19.61;100.00;100294.94;5012918;28;20033;-72
2023/07/15 05:43:06;;;;;;;15.60;4.00;;;;;;;19.72;100.00;100305.22;5012743;28;20038;-65
2023/07/15 05:45:31;;;;;;;16.85;4.20;;;;;;;19.85;100.00;100305.63;5012578;28;20120;-69
2023/07/15 05:47:56;;;;;;;16.52;4.20;;;;;;;19.97;100.00;100304.22;5012600;28;20029;-71
2023/07/15 05:50:22;;;;;;;14.38;4.00;;;;;;;20.05;100.00;100304.72;5012698;28;20030;-70
2023/07/15 05:52:47;;;;;;;13.93;4.00;;;;;;;20.18;100.00;100314.00;5012521;28;20465;-68
2023/07/15 05:55:12;;;;;;;11.40;3.72;;;;;;;20.33;100.00;100312.44;5012530;28;20030;-70
2023/07/15 05:57:38;;;;;;;13.60;3.78;;;;;;;20.47;94.41;100317.19;5012703;28;20451;-69
2023/07/15 06:00:04;;;;;;;15.10;3.97;;;;;;;20.64;98.86;100323.63;5012503;28;20037;-70
2023/07/15 06:02:30;;;;;;;16.35;3.78;;;;;;;20.69;94.85;100321.59;5012595;28;20034;-70
2023/07/15 06:04:55;;;;;;;12.95;3.83;;;;;;;20.69;96.87;100318.91;5012451;28;20440;-70
2023/07/15 06:07:20;;;;;;;18.17;3.92;;;;;;;20.69;93.55;100321.59;5012424;28;20109;-72
2023/07/15 06:09:49;;;;;;;13.55;3.72;;;;;;;20.68;92.94;100314.50;5012763;28;20431;-71
2023/07/15 06:12:15;;;;;;;10.32;3.50;;;;;;;20.72;93.51;100316.97;5012422;28;20058;-70
2023/07/15 06:14:40;;;;;;;8.85;3.30;;;;;;;20.78;98.26;100325.69;5012218;28;20037;-71
2023/07/15 06:17:05;;;;;;;12.98;3.50;;;;;;;20.87;100.00;100325.28;5012664;28;20065;-71
2023/07/15 06:19:31;;;;;;;11.98;3.40;;;;;;;20.87;100.00;100320.75;5011911;28;20030;-72
2023/07/15 06:21:56;;;;;;;10.15;3.30;;;;;;;20.90;100.00;100309.88;5012059;28;20507;-71
2023/07/15 06:24:21;;;;;;;13.40;3.50;;;;;;;20.95;100.00;100322.22;5012188;28;20045;-71
2023/07/15 06:26:47;;;;;;;15.77;3.50;;;;;;;20.92;100.00;100320.53;5012424;28;20045;-70
2023/07/15 06:29:12;;;;;;;11.95;3.50;;;;;;;20.96;100.00;100327.53;5013669;28;20037;-67
2023/07/15 06:31:37;;;;;;;12.55;3.25;;;;;;;20.99;100.00;100316.63;5015993;28;20083;-71
2023/07/15 06:34:03;;;;;;;11.68;3.38;;;;;;;20.95;100.00;100319.53;5015963;28;20116;-71
2023/07/15 06:36:28;;;;;;;12.13;3.42;;;;;;;20.97;100.00;100326.59;4998188;28;20054;-67
2023/07/15 06:38:54;;;;;;;13.93;3.40;;;;;;;21.02;100.00;100331.72;5011981;28;20030;-63
2023/07/15 06:41:19;;;;;;;13.02;3.50;;;;;;;21.22;100.00;100331.66;5015605;28;20496;-66
2023/07/15 06:43:44;;;;;;;11.60;3.30;;;;;;;21.53;100.00;100335.56;5015639;28;20045;-68
2023/07/15 06:46:10;;;;;;;11.18;3.20;;;;;;;21.72;100.00;100337.34;5015389;28;20033;-68
2023/07/15 06:48:35;;;;;;;11.98;3.42;;;;;;;21.91;100.00;100334.59;5015393;28;20030;-67
2023/07/15 06:51:01;;;;;;;11.77;3.33;;;;;;;21.96;100.00;100331.66;5015529;28;20085;-68
2023/07/15 06:53:26;;;;;;;10.13;3.13;;;;;;;21.99;100.00;100324.31;5015375;28;20030;-67
2023/07/15 06:55:52;;;;;;;11.35;3.20;;;;;;;21.90;100.00;100317.59;5015313;28;20033;-66
2023/07/15 06:58:17;;;;;;;11.15;3.10;;;;;;;21.84;100.00;100317.88;5015539;28;20034;-65
2023/07/15 07:00:42;;;;;;;9.68;3.03;;;;;;;21.87;100.00;100317.75;5015260;28;20038;-65
2023/07/15 07:03:08;;;;;;;10.07;2.95;;;;;;;21.88;100.00;100322.16;5015046;28;20038;-64
2023/07/15 07:05:33;;;;;;;12.38;3.47;;;;;;;22.03;100.00;100325.00;5015580;28;20030;-65
2023/07/15 07:07:58;;;;;;;9.88;3.10;;;;;;;22.23;100.00;100324.84;5015165;28;20061;-68
2023/07/15 07:10:24;;;;;;;10.73;3.00;;;;;;;22.43;100.00;100320.28;5015083;28;20367;-67
2023/07/15 07:12:49;;;;;;;9.45;2.95;;;;;;;22.48;100.00;100318.19;5015449;28;20030;-66
2023/07/15 07:15:15;;;;;;;9.32;3.03;;;;;;;22.56;99.80;100325.88;5014955;28;20022;-68
2023/07/15 07:17:40;;;;;;;9.20;2.92;;;;;;;22.65;98.91;100319.13;5015165;28;20026;-67
2023/07/15 07:20:06;;;;;;;8.82;2.90;;;;;;;22.74;96.13;100324.00;5014919;28;20484;-67
2023/07/15 07:22:32;;;;;;;9.88;3.00;;;;;;;22.89;100.00;100311.50;5014980;28;20036;-67
2023/07/15 07:24:58;;;;;;;9.00;3.03;;;;;;;23.09;95.27;100332.81;5015116;28;20026;-67
2023/07/15 07:27:23;;;;;;;9.60;2.97;;;;;;;23.21;94.97;100342.09;5014749;28;20034;-62
2023/07/15 07:29:48;;;;;;;8.27;2.92;;;;;;;23.27;89.34;100328.25;5014385;28;20040;-62
2023/07/15 07:32:14;;;;;;;8.82;2.72;;;;;;;23.33;87.66;100335.97;5014774;28;20041;-68
2023/07/15 07:34:39;;;;;;;13.40;2.90;;;;;;;23.42;87.70;100341.81;5014255;28;20061;-68
2023/07/15 07:37:05;;;;;;;12.02;2.80;;;;;;;23.60;86.33;100338.03;5014299;28;20058;-68
2023/07/15 07:39:30;;;;;;;12.23;2.90;;;;;;;23.58;85.51;100345.38;5014500;28;20036;-62
2023/07/15 07:41:56;;;;;;;9.45;2.90;;;;;;;23.47;87.71;100339.72;5013678;28;20050;-67
2023/07/15 07:44:22;;;;;;;9.07;2.88;;;;;;;23.52;87.93;100339.44;5014332;28;20034;-67
2023/07/15 07:46:47;;;;;;;10.48;3.03;;;;;;;23.50;88.59;100331.44;5014594;28;20085;-67
2023/07/15 07:49:13;;;;;;;11.65;3.00;;;;;;;23.48;91.55;100334.22;5014532;28;20042;-63
2023/07/15 07:51:38;;;;;;;10.75;3.10;;;;;;;23.60;94.66;100339.88;5014243;28;20033;-68
2023/07/15 07:54:04;;;;;;;7.80;2.90;;;;;;;23.64;91.12;100341.44;4996995;28;20492;-62
2023/07/15 07:56:29;;;;;;;9.63;2.78;;;;;;;23.66;90.99;100331.41;5014143;28;20125;-65
2023/07/15 07:58:57;;;;;;;6.82;2.63;;;;;;;23.70;91.56;100340.22;5010181;28;20036;-63
2023/07/15 08:01:25;;;;;;;12.98;2.90;;;;;;;23.69;91.57;100325.84;5014344;28;20026;-63
2023/07/15 08:03:52;;;;;;;10.35;2.67;;;;;;;23.78;94.43;100324.44;5013989;28;20026;-65
2023/07/15 08:06:20;;;;;;;9.18;2.70;;;;;;;23.82;92.47;100320.59;5014125;28;20036;-67
2023/07/15 08:08:45;;;;;;;7.82;2.53;;;;;;;23.61;92.60;100355.97;5014295;28;20061;-65
2023/07/15 08:11:10;;;;;;;9.45;2.60;;;;;;;23.48;94.39;100355.81;5013994;28;20056;-66
2023/07/15 08:13:36;;;;;;;6.70;2.60;;;;;;;23.66;94.44;100347.59;5014117;28;20076;-62
2023/07/15 08:16:01;;;;;;;9.65;2.60;;;;;;;23.84;92.26;100360.03;5013871;28;20034;-68
2023/07/15 08:18:26;;;;;;;7.53;2.80;;;;;;;23.92;90.04;100348.81;5013806;28;20030;-62
2023/07/15 08:20:52;;;;;;;5.80;2.40;;;;;;;24.02;91.19;100341.91;5013932;28;20030;-62
2023/07/15 08:23:17;;;;;;;8.38;2.60;;;;;;;24.16;93.83;100357.28;5013576;28;20034;-62
2023/07/15 08:25:43;;;;;;;8.15;2.60;;;;;;;24.40;91.15;100350.47;5013673;28;20034;-61
2023/07/15 08:28:09;;;;;;;9.75;2.80;;;;;;;24.52;88.79;100356.00;5014107;28;20398;-67
2023/07/15 08:30:36;;;;;;;8.40;2.60;;;;;;;24.45;87.32;100367.25;5013637;28;20038;-64
2023/07/15 08:33:05;;;;;;;6.93;2.60;;;;;;;24.25;90.14;100349.59;5013540;28;20029;-70
2023/07/15 08:35:34;;;;;;;7.30;2.67;;;;;;;24.11;88.98;100356.66;5013692;28;20477;-70
2023/07/15 08:38:00;;;;;;;9.90;2.70;;;;;;;24.13;93.27;100352.06;5013435;28;20042;-70
2023/07/15 08:40:26;;;;;;;7.05;2.70;;;;;;;24.22;90.08;100358.75;5009507;28;20037;-70
2023/07/15 08:42:53;;;;;;;9.52;2.67;;;;;;;24.33;90.54;100356.25;5013527;28;20114;-70
2023/07/15 08:45:19;;;;;;;12.85;2.90;;;;;;;24.41;86.30;100374.69;5013341;28;20038;-67
2023/07/15 08:47:46;;;;;;;9.18;2.78;;;;;;;24.53;87.85;100370.38;5013333;28;20025;-71
2023/07/15 08:50:12;;;;;;;8.82;2.90;;;;;;;24.52;85.12;100383.00;5013467;28;20038;-70
2023/07/15 08:52:40;;;;;;;10.90;2.92;;;;;;;24.41;84.25;100384.63;5012994;28;20029;-71
2023/07/15 08:55:06;;;;;;;13.57;3.38;;;;;;;24.24;82.66;100388.34;5013238;28;20117;-70
2023/07/15 08:57:32;;;;;;;10.70;3.05;;;;;;;24.09;85.23;100384.75;5013032;28;20030;-69
2023/07/15 08:59:58;;;;;;;9.35;2.97;;;;;;;24.07;86.18;100387.53;5012993;28;20099;-67
2023/07/15 09:02:24;;;;;;;11.50;3.10;;;;;;;24.02;86.64;100401.28;5012992;28;20056;-69
2023/07/15 09:04:49;;;;;;;8.75;3.00;;;;;;;23.89;87.31;100404.81;5013160;28;20038;-68
2023/07/15 09:07:15;;;;;;;13.38;3.20;;;;;;;23.73;86.51;100407.47;5012966;28;20030;-68
2023/07/15 09:09:42;;;;;;;11.57;3.20;;;;;;;23.58;82.26;100409.25;5012949;28;20025;-70
2023/07/15 09:12:09;;;;;;;12.25;3.17;;;;;;;23.41;82.94;100400.25;5013090;28;20029;-67
2023/07/15 09:14:52;;;;;;;12.57;3.10;;;;;;;23.47;82.18;100415.22;5013096;28;20447;-67
2023/07/15 09:17:20;;;;;;;11.15;3.10;;;;;;;23.35;81.16;100388.97;5012907;28;20026;-69
2023/07/15 09:19:46;;;;;;;12.02;3.20;;;;;;;23.21;84.63;100400.50;5012707;28;20085;-66
2023/07/15 09:22:12;;;;;;;14.82;3.47;;;;;;;23.37;82.69;100390.59;5012979;28;20042;-71
2023/07/15 09:24:38;;;;;;;11.45;3.30;;;;;;;23.78;82.88;100408.06;5012727;28;20559;-67
2023/07/15 09:27:04;;;;;;;10.60;3.13;;;;;;;23.89;78.61;100394.88;5012750;28;20031;-66
2023/07/15 09:29:30;;;;;;;9.20;3.17;;;;;;;24.07;78.22;100400.13;5013004;28;20072;-69
2023/07/15 09:31:55;;;;;;;10.73;3.00;;;;;;;24.20;76.67;100403.84;5008715;28;20025;-70
2023/07/15 09:34:25;;;;;;;10.02;3.10;;;;;;;24.20;76.91;100403.84;5012645;28;20061;-68
2023/07/15 09:36:51;;;;;;;11.75;3.20;;;;;;;23.99;76.28;100417.66;5012894;28;20053;-66
2023/07/15 09:39:19;;;;;;;14.43;3.30;;;;;;;23.77;79.42;100407.22;4995224;28;20038;-66
2023/07/15 09:41:58;;;;;;;11.55;3.20;;;;;;;23.75;81.75;100405.56;5012749;28;20481;-66
2023/07/15 09:44:35;;;;;;;13.05;3.25;;;;;;;23.72;81.39;100408.44;5012642;28;20045;-67
2023/07/15 09:47:03;;;;;;;14.85;3.00;;;;;;;23.80;80.38;100422.38;5009562;28;20022;-66
2023/07/15 09:49:28;;;;;;;11.75;3.13;;;;;;;23.76;79.27;100424.34;5012626;28;20029;-69
2023/07/15 09:51:54;;;;;;;13.77;3.30;;;;;;;23.61;80.41;100423.41;5012590;28;20053;-66
2023/07/15 09:54:22;;;;;;;8.70;3.00;;;;;;;23.56;84.36;100443.50;5012884;28;20504;-65
2023/07/15 09:56:50;;;;;;;10.40;3.10;;;;;;;23.49;86.48;100448.38;5012565;28;20061;-61
2023/07/15 09:59:21;;;;;;;10.60;3.08;;;;;;;23.04;92.92;100440.00;5012527;28;20034;-69
2023/07/15 10:02:18;;;;;;;13.20;3.30;;;;;;;22.86;96.09;100451.78;5012565;28;20083;-66
2023/07/15 10:04:45;;;;;;;11.45;3.20;;;;;;;22.89;95.03;100457.88;5003539;28;20385;-67
2023/07/15 10:07:12;;;;;;;14.70;3.40;;;;;;;22.78;98.21;100444.97;5016492;28;20022;-68
2023/07/15 10:09:38;;;;;;;11.50;3.25;;;;;;;22.59;100.00;100439.69;5015982;28;20026;-69
2023/07/15 10:12:05;;;;;;;13.07;3.35;;;;;;;22.54;100.00;100444.44;5016278;28;20045;-68
2023/07/15 10:14:31;;;;;;;10.13;3.20;;;;;;;22.45;100.00;100434.13;5016229;28;20487;-62
2023/07/15 10:17:14;;;;;;;12.13;3.30;;;;;;;21.59;100.00;100417.75;5012184;28;20101;-62
2023/07/15 10:19:42;;;;;;;12.43;3.42;;;;;;;20.90;100.00;100433.44;5014201;28;20032;-68
2023/07/15 10:22:08;;;;;;;10.70;3.55;;;;;;;20.72;100.00;100407.41;5015991;28;20037;-62
2023/07/15 10:24:34;;;;;;;11.25;3.30;;;;;;;20.72;100.00;100412.75;5016048;28;20038;-65
2023/07/15 10:27:03;;;;;;;10.80;3.42;;;;;;;21.09;100.00;100400.34;5016050;28;20032;-63
2023/07/15 10:29:31;;;;;;;15.73;4.25;;;;;;;20.84;100.00;100401.47;5012167;28;20386;-64
2023/07/15 10:32:08;;;;;;;11.57;3.53;;;;;;;20.43;100.00;100420.28;4994740;28;20084;-68
2023/07/15 10:34:52;;;;;;;13.18;3.80;;;;;;;20.27;100.00;100413.81;5012954;28;20030;-67
2023/07/15 10:37:19;;;;;;;14.02;3.60;;;;;;;20.13;100.00;100417.97;5015798;28;20389;-62
2023/07/15 10:39:46;;;;;;;16.55;4.05;;;;;;;20.54;100.00;100415.28;5015883;28;20479;-71
2023/07/15 10:42:17;;;;;;;12.52;3.55;;;;;;;21.30;100.00;100409.22;5015609;28;20037;-69
2023/07/15 10:44:45;;;;;;;11.05;3.25;;;;;;;21.81;100.00;100414.00;5015745;28;20033;-71
2023/07/15 10:47:14;;;;;;;11.02;3.40;;;;;;;21.97;100.00;100419.50;5015567;28;20389;-71
2023/07/15 10:49:40;;;;;;;11.52;3.40;;;;;;;22.17;100.00;100419.38;5015435;28;20064;-69
2023/07/15 10:52:06;;;;;;;9.63;3.25;;;;;;;22.44;100.00;100418.91;5015725;28;20029;-71
2023/07/15 10:54:37;;;;;;;9.32;3.03;;;;;;;23.09;100.00;100410.09;5008134;28;20363;-62
2023/07/15 10:57:14;;;;;;;8.63;3.20;;;;;;;23.80;100.00;100417.81;5008297;28;20030;-70
2023/07/15 10:59:41;;;;;;;11.05;3.20;;;;;;;23.97;100.00;100421.41;5011695;28;20022;-64
2023/07/15 11:02:07;;;;;;;9.02;3.20;;;;;;;23.53;100.00;100427.50;4997791;28;20026;-73
2023/07/15 11:04:34;;;;;;;10.35;3.13;;;;;;;23.16;100.00;100425.03;5014933;28;20580;-65
2023/07/15 11:07:04;;;;;;;14.82;3.30;;;;;;;22.94;100.00;100428.00;5014807;28;20049;-66
2023/07/15 11:09:30;;;;;;;17.60;3.35;;;;;;;23.08;100.00;100424.53;5015180;28;20080;-64
2023/07/15 11:11:56;;;;;;;10.15;3.20;;;;;;;23.41;100.00;100426.38;5015015;28;20030;-62